Time;durP1;ratioP1;P1;durP2;ratioP2;P2;SDS_P1;SDS_P2;PMS_P1;PMS_P2;Temp;Humidity;BMP_temperature;BMP_pressure;BME280_temperature;BME280_humidity;BME280_pressure;Samples;Min_cycle;Max_cycle;Signal;HPM_P1;HPM_P2
2023/07/29 00:01:00;;;;;;;4.97;2.63;;;;;;;27.53;49.48;100782.78;5054402;28;20056;-58
2023/07/29 00:03:29;;;;;;;5.85;2.65;;;;;;;27.55;49.66;100786.19;5054103;28;20052;-58
2023/07/29 00:05:57;;;;;;;5.50;3.42;;;;;;;27.54;49.84;100787.19;5062776;28;20053;-58
2023/07/29 00:08:25;;;;;;;4.55;3.20;;;;;;;27.54;49.70;100784.47;5061384;28;20408;-58
2023/07/29 00:10:52;;;;;;;4.50;2.95;;;;;;;27.54;49.66;100779.03;5058658;28;20060;-58
2023/07/29 00:13:20;;;;;;;4.05;2.72;;;;;;;27.56;50.08;100776.16;5056549;28;20520;-58
2023/07/29 00:15:48;;;;;;;4.18;3.20;;;;;;;27.55;49.55;100779.91;5057973;28;20052;-58
2023/07/29 00:18:16;;;;;;;4.65;2.63;;;;;;;27.54;49.60;100779.03;5059151;28;20056;-58
2023/07/29 00:20:43;;;;;;;5.10;2.65;;;;;;;27.54;49.60;100789.91;5057692;28;20052;-58
2023/07/29 00:23:11;;;;;;;3.63;2.58;;;;;;;27.54;49.74;100776.31;5057625;28;20484;-58
2023/07/29 00:25:41;;;;;;;4.97;2.65;;;;;;;27.56;49.85;100781.59;5057435;28;20041;-58
2023/07/29 00:28:09;;;;;;;4.38;2.58;;;;;;;27.56;49.86;100784.31;5057533;28;20053;-56
2023/07/29 00:30:37;;;;;;;6.30;3.22;;;;;;;27.56;49.78;100785.13;5056306;28;20049;-56
2023/07/29 00:33:07;;;;;;;3.20;2.40;;;;;;;27.56;49.86;100784.31;5057151;28;20503;-56
2023/07/29 00:35:38;;;;;;;5.13;3.53;;;;;;;27.55;49.96;100788.06;5057301;28;20493;-55
2023/07/29 00:38:06;;;;;;;5.25;3.13;;;;;;;27.56;50.00;100787.03;5059279;28;20049;-58
2023/07/29 00:40:36;;;;;;;3.58;2.63;;;;;;;27.56;49.86;100785.13;5057793;28;20392;-58
2023/07/29 00:43:03;;;;;;;4.90;2.40;;;;;;;27.55;49.73;100785.34;5057191;28;20056;-58
2023/07/29 00:45:31;;;;;;;4.10;2.42;;;;;;;27.56;49.57;100785.13;5071493;28;20049;-58
2023/07/29 00:48:03;;;;;;;3.83;2.35;;;;;;;27.56;49.81;100789.75;5057815;28;20053;-56
2023/07/29 00:50:32;;;;;;;4.22;2.55;;;;;;;27.56;49.67;100787.88;5057024;28;20048;-56
2023/07/29 00:53:00;;;;;;;3.65;2.67;;;;;;;27.56;49.92;100785.13;5055878;28;20072;-56
2023/07/29 00:55:28;;;;;;;4.57;3.15;;;;;;;27.56;49.58;100787.88;5055747;28;20048;-56
2023/07/29 00:57:56;;;;;;;4.30;2.45;;;;;;;27.56;49.84;100793.31;5072604;28;20048;-56
2023/07/29 01:00:24;;;;;;;3.78;3.00;;;;;;;27.56;50.13;100790.59;5056822;28;20075;-56
2023/07/29 01:02:54;;;;;;;4.05;2.78;;;;;;;27.56;50.09;100784.31;5055645;28;20049;-56
2023/07/29 01:05:27;;;;;;;3.88;2.70;;;;;;;27.56;49.84;100789.75;5057263;28;20045;-56
2023/07/29 01:08:30;;;;;;;5.75;3.15;;;;;;;27.56;49.85;100796.03;5055654;28;20052;-56
2023/07/29 01:11:26;;;;;;;4.20;2.53;;;;;;;27.56;49.78;100798.75;5052271;28;20068;-56
2023/07/29 01:14:01;;;;;;;4.47;2.88;;;;;;;27.56;49.74;100795.19;5056658;28;20045;-55
2023/07/29 01:16:41;;;;;;;5.22;3.28;;;;;;;27.56;50.03;100798.75;5055511;28;20056;-57
2023/07/29 01:19:24;;;;;;;5.20;2.97;;;;;;;27.54;49.78;100800.78;5056224;28;20064;-56
2023/07/29 01:21:52;;;;;;;4.28;3.03;;;;;;;27.54;50.24;100792.63;5072694;28;20377;-56
2023/07/29 01:24:20;;;;;;;3.30;2.58;;;;;;;27.55;49.95;100802.50;5072426;28;20047;-56
2023/07/29 01:26:47;;;;;;;4.22;3.03;;;;;;;27.56;50.14;100797.91;5071140;28;20053;-56
2023/07/29 01:29:15;;;;;;;3.90;2.50;;;;;;;27.54;50.08;100800.78;5059182;28;20060;-56
2023/07/29 01:31:46;;;;;;;4.05;2.97;;;;;;;27.55;50.23;100796.22;5056166;28;20044;-55
2023/07/29 01:34:24;;;;;;;4.43;2.75;;;;;;;27.55;49.94;100801.66;5055148;28;20053;-55
2023/07/29 01:36:57;;;;;;;4.95;3.05;;;;;;;27.55;50.30;100798.94;5057385;28;20059;-58
2023/07/29 01:39:32;;;;;;;3.88;2.92;;;;;;;27.56;50.31;100797.91;5068873;28;20057;-58
2023/07/29 01:42:00;;;;;;;4.13;3.05;;;;;;;27.54;50.29;100798.06;5056622;28;20061;-58
2023/07/29 01:44:28;;;;;;;4.22;2.60;;;;;;;27.55;50.01;100796.22;5055072;28;20049;-58
2023/07/29 01:46:56;;;;;;;4.15;3.20;;;;;;;27.56;50.15;100796.03;5057370;28;20056;-56
2023/07/29 01:49:24;;;;;;;4.82;2.58;;;;;;;27.56;50.05;100797.91;5054941;28;20052;-55
2023/07/29 01:51:51;;;;;;;3.90;2.92;;;;;;;27.55;50.29;100796.22;5055727;28;20099;-55
2023/07/29 01:54:18;;;;;;;5.28;3.15;;;;;;;27.55;50.41;100797.06;5056540;28;20103;-63
2023/07/29 01:56:46;;;;;;;3.63;2.80;;;;;;;27.54;50.38;100792.63;5056136;28;20052;-59
2023/07/29 01:59:15;;;;;;;4.82;3.05;;;;;;;27.54;50.65;100789.91;5067655;28;20532;-58
2023/07/29 02:01:43;;;;;;;3.80;3.05;;;;;;;27.53;50.46;100787.38;5054220;28;20048;-58
2023/07/29 02:04:10;;;;;;;5.18;3.55;;;;;;;27.53;50.67;100790.09;5055642;28;20045;-58
2023/07/29 02:06:38;;;;;;;4.10;3.03;;;;;;;27.53;50.99;100792.81;5055627;28;20072;-58
2023/07/29 02:09:05;;;;;;;4.43;3.30;;;;;;;27.52;51.05;100791.16;5069261;28;20049;-58
2023/07/29 02:11:33;;;;;;;4.15;3.03;;;;;;;27.52;51.28;100794.72;5054818;28;20409;-58
2023/07/29 02:14:00;;;;;;;4.72;2.92;;;;;;;27.52;50.94;100788.44;5054453;28;20063;-58
2023/07/29 02:16:28;;;;;;;4.22;2.95;;;;;;;27.51;50.95;100801.19;5055255;28;20415;-62
2023/07/29 02:18:55;;;;;;;6.35;3.22;;;;;;;27.52;50.89;100799.31;5069354;28;20500;-62
2023/07/29 02:21:23;;;;;;;3.70;2.42;;;;;;;27.49;50.84;100797.78;5071095;28;20056;-62
2023/07/29 02:23:51;;;;;;;4.35;3.10;;;;;;;27.52;51.36;100802.03;5069512;28;20052;-62
2023/07/29 02:26:19;;;;;;;4.25;3.25;;;;;;;27.51;51.45;100795.75;5057884;28;20037;-63
2023/07/29 02:28:46;;;;;;;5.43;3.22;;;;;;;27.50;51.82;100799.47;5068762;28;20053;-58
2023/07/29 02:31:22;;;;;;;5.65;3.35;;;;;;;27.51;52.04;100792.19;5054736;28;20051;-58
2023/07/29 02:33:50;;;;;;;5.07;4.10;;;;;;;27.50;52.02;100788.59;5068910;28;20068;-58
2023/07/29 02:36:18;;;;;;;5.32;3.05;;;;;;;27.49;51.81;100789.63;5066502;28;20056;-58
2023/07/29 02:38:46;;;;;;;5.55;3.35;;;;;;;27.48;51.93;100785.22;5066207;28;20053;-58
2023/07/29 02:41:15;;;;;;;4.78;3.33;;;;;;;27.47;51.79;100789.00;5063669;28;20048;-58
2023/07/29 02:43:43;;;;;;;5.10;3.38;;;;;;;27.47;51.92;100799.88;5058011;28;20060;-58
2023/07/29 02:46:11;;;;;;;5.00;3.30;;;;;;;27.46;51.83;100794.59;5067324;28;20531;-58
2023/07/29 02:48:38;;;;;;;4.30;3.03;;;;;;;27.45;51.92;100809.22;5053798;28;20060;-62
2023/07/29 02:51:06;;;;;;;4.68;2.80;;;;;;;27.46;51.83;100819.06;5053650;28;20055;-62
2023/07/29 02:53:33;;;;;;;5.60;2.80;;;;;;;27.44;51.85;100816.53;5055604;28;20045;-62
2023/07/29 02:56:01;;;;;;;4.97;3.35;;;;;;;27.43;51.71;100817.59;5054805;28;20041;-63
2023/07/29 02:58:29;;;;;;;5.43;3.70;;;;;;;27.42;51.75;100812.31;5054754;28;20064;-62
2023/07/29 03:01:03;;;;;;;5.47;3.38;;;;;;;27.41;51.65;100811.47;5053513;28;20056;-63
2023/07/29 03:03:32;;;;;;;4.10;3.38;;;;;;;27.40;51.63;100815.22;5056072;28;20049;-62
2023/07/29 03:06:05;;;;;;;3.42;2.90;;;;;;;27.40;51.99;100817.94;5054005;28;20056;-63
2023/07/29 03:08:33;;;;;;;5.25;3.60;;;;;;;27.41;51.80;100818.78;5053718;28;20489;-58
2023/07/29 03:11:11;;;;;;;4.88;3.40;;;;;;;27.40;51.91;100812.50;5054888;28;20053;-58
2023/07/29 03:13:39;;;;;;;5.05;3.17;;;;;;;27.39;51.80;100808.13;5068098;28;20060;-58
2023/07/29 03:16:07;;;;;;;3.90;3.00;;;;;;;27.39;51.89;100802.69;5053610;28;20390;-58
2023/07/29 03:18:35;;;;;;;5.13;3.50;;;;;;;27.40;51.74;100806.22;5053741;28;20049;-62
2023/07/29 03:21:03;;;;;;;5.03;3.30;;;;;;;27.39;51.66;100816.28;5053834;28;20053;-62
2023/07/29 03:23:32;;;;;;;4.25;3.30;;;;;;;27.38;51.35;100817.28;5053735;28;20416;-62
2023/07/29 03:26:00;;;;;;;4.13;2.97;;;;;;;27.39;51.31;100823.56;5053286;28;20408;-62
2023/07/29 03:28:29;;;;;;;4.00;2.88;;;;;;;27.38;51.29;100813.72;5053482;28;20057;-62
2023/07/29 03:30:57;;;;;;;5.40;3.40;;;;;;;27.38;51.16;100806.41;5054618;28;20053;-62
2023/07/29 03:33:26;;;;;;;3.60;3.08;;;;;;;27.36;51.05;100801.16;5054187;28;20080;-62
2023/07/29 03:35:53;;;;;;;4.90;2.97;;;;;;;27.37;51.48;100812.88;5054950;28;20451;-62
2023/07/29 03:38:20;;;;;;;4.00;3.20;;;;;;;27.38;51.57;100808.28;5053537;28;20049;-62
2023/07/29 03:40:48;;;;;;;3.78;3.10;;;;;;;27.38;51.41;100805.56;5054237;28;20068;-62
2023/07/29 03:43:15;;;;;;;4.75;3.40;;;;;;;27.36;51.38;100813.91;5056387;28;20056;-62
2023/07/29 03:45:44;;;;;;;3.85;3.35;;;;;;;27.37;51.47;100821.03;5057051;28;20068;-62
2023/07/29 03:48:11;;;;;;;5.20;3.13;;;;;;;27.38;51.87;100811.00;5058060;28;20060;-58
2023/07/29 03:50:39;;;;;;;4.47;3.42;;;;;;;27.37;51.84;100812.88;5066540;28;20052;-58
2023/07/29 03:53:06;;;;;;;4.10;2.92;;;;;;;27.38;51.91;100819.16;5073114;28;20052;-58
2023/07/29 03:55:34;;;;;;;4.97;3.28;;;;;;;27.38;51.78;100827.31;5068617;28;20063;-58
2023/07/29 03:58:01;;;;;;;5.53;3.08;;;;;;;27.38;51.71;100839.03;5056615;28;20048;-58
2023/07/29 04:00:28;;;;;;;5.45;3.60;;;;;;;27.39;51.75;100837.16;5058045;28;20055;-58
2023/07/29 04:02:56;;;;;;;6.00;3.50;;;;;;;27.38;51.58;100832.75;5070522;28;20530;-58
2023/07/29 04:05:23;;;;;;;4.82;4.20;;;;;;;27.38;51.47;100843.63;5056799;28;20405;-58
2023/07/29 04:07:53;;;;;;;5.57;4.97;;;;;;;27.38;51.83;100839.03;5057970;28;20067;-63
2023/07/29 04:10:31;;;;;;;4.72;4.22;;;;;;;27.38;51.54;100832.75;5057983;28;20049;-63
2023/07/29 04:12:59;;;;;;;6.05;4.65;;;;;;;27.38;51.48;100832.75;5071708;28;20056;-64
2023/07/29 04:15:26;;;;;;;6.93;4.22;;;;;;;27.38;51.51;100832.75;5067471;28;20048;-63
2023/07/29 04:17:53;;;;;;;4.97;3.85;;;;;;;27.38;51.90;100835.47;5056523;28;20056;-58
2023/07/29 04:20:21;;;;;;;4.22;3.60;;;;;;;27.36;51.64;100839.22;5057766;28;20526;-58
2023/07/29 04:22:48;;;;;;;5.18;3.90;;;;;;;27.36;51.45;100849.25;5057702;28;20040;-58
2023/07/29 04:25:16;;;;;;;4.88;3.70;;;;;;;27.36;51.29;100846.53;5056408;28;20049;-58
2023/07/29 04:27:43;;;;;;;4.75;3.70;;;;;;;27.36;51.68;100850.09;5056216;28;20516;-62
2023/07/29 04:30:10;;;;;;;4.63;3.95;;;;;;;27.36;51.61;100851.97;5057586;28;20064;-62
2023/07/29 04:32:38;;;;;;;5.78;4.03;;;;;;;27.34;51.81;100846.69;5057777;28;20052;-63
2023/07/29 04:35:09;;;;;;;4.90;3.85;;;;;;;27.35;51.70;100845.69;5071063;28;20512;-62
2023/07/29 04:37:36;;;;;;;4.70;3.70;;;;;;;27.33;51.60;100847.75;5057660;28;20492;-58
2023/07/29 04:40:05;;;;;;;5.25;3.80;;;;;;;27.34;51.24;100859.44;5058593;28;20487;-58
2023/07/29 04:42:32;;;;;;;5.03;4.30;;;;;;;27.32;51.16;100859.66;5056493;28;20416;-58
2023/07/29 04:44:59;;;;;;;5.55;3.88;;;;;;;27.32;51.17;100856.94;5057116;28;20049;-58
2023/07/29 04:47:27;;;;;;;6.13;4.00;;;;;;;27.31;51.20;100854.41;5055940;28;20528;-58
2023/07/29 04:49:54;;;;;;;4.65;3.83;;;;;;;27.31;51.20;100857.97;5057047;28;20048;-58
2023/07/29 04:52:22;;;;;;;4.90;3.78;;;;;;;27.31;51.14;100854.41;5057042;28;20044;-58
2023/07/29 04:54:49;;;;;;;4.78;3.80;;;;;;;27.32;51.37;100856.09;5055707;28;20053;-58
2023/07/29 04:57:16;;;;;;;5.57;4.43;;;;;;;27.31;51.13;100854.41;5055720;28;20053;-58
2023/07/29 04:59:44;;;;;;;4.88;3.92;;;;;;;27.31;51.30;100859.84;5058014;28;20044;-58
2023/07/29 05:02:11;;;;;;;4.97;3.97;;;;;;;27.31;51.29;100859.84;5056628;28;20053;-58
2023/07/29 05:04:39;;;;;;;5.22;3.92;;;;;;;27.31;51.21;100863.41;5057236;28;20052;-57
2023/07/29 05:07:06;;;;;;;6.30;4.00;;;;;;;27.31;51.85;100868.84;5075227;28;20488;-58
2023/07/29 05:09:34;;;;;;;4.75;3.78;;;;;;;27.31;51.41;100857.97;5060380;28;20057;-58
2023/07/29 05:12:02;;;;;;;5.45;3.95;;;;;;;27.31;51.32;100859.84;5061406;28;20063;-58
2023/07/29 05:14:29;;;;;;;4.97;3.95;;;;;;;27.29;51.56;100870.88;5072887;28;20052;-58
2023/07/29 05:16:56;;;;;;;4.93;3.97;;;;;;;27.30;51.57;100874.44;5061114;28;20397;-57
2023/07/29 05:19:24;;;;;;;6.53;4.22;;;;;;;27.30;51.21;100869.00;5057517;28;20511;-58
2023/07/29 05:21:51;;;;;;;7.32;4.20;;;;;;;27.28;51.32;100866.47;5055407;28;20057;-58
2023/07/29 05:24:19;;;;;;;4.47;3.67;;;;;;;27.29;51.44;100865.44;5064800;28;20436;-58
2023/07/29 05:26:46;;;;;;;5.43;4.25;;;;;;;27.29;51.21;100867.31;5061953;28;20549;-58
2023/07/29 05:29:13;;;;;;;5.43;4.30;;;;;;;27.28;51.50;100868.34;5057658;28;20040;-58
2023/07/29 05:31:41;;;;;;;4.90;3.85;;;;;;;27.28;51.66;100877.34;5054745;28;20063;-58
2023/07/29 05:34:09;;;;;;;5.55;4.53;;;;;;;27.29;51.44;100886.34;5054996;28;20057;-58
2023/07/29 05:36:36;;;;;;;4.95;4.35;;;;;;;27.28;51.36;100893.66;5055105;28;20413;-62
2023/07/29 05:39:04;;;;;;;5.30;4.00;;;;;;;27.28;51.62;100892.81;5056123;28;20055;-62
2023/07/29 05:41:31;;;;;;;5.63;4.10;;;;;;;27.29;51.74;100889.91;5056469;28;20432;-63
2023/07/29 05:43:59;;;;;;;6.40;4.35;;;;;;;27.30;51.67;100871.72;5055042;28;20068;-62
2023/07/29 05:46:26;;;;;;;5.63;4.43;;;;;;;27.30;51.56;100861.69;5054390;28;20528;-61
2023/07/29 05:48:54;;;;;;;5.15;3.97;;;;;;;27.31;51.35;100868.00;5056978;28;20527;-63
2023/07/29 05:51:21;;;;;;;5.03;4.20;;;;;;;27.30;51.43;100869.00;5062220;28;20051;-62
2023/07/29 05:53:49;;;;;;;4.72;3.72;;;;;;;27.30;51.23;100861.69;5065097;28;20053;-63
2023/07/29 05:56:16;;;;;;;5.35;4.22;;;;;;;27.30;51.55;100867.13;5054464;28;20053;-62
2023/07/29 05:58:44;;;;;;;4.82;3.92;;;;;;;27.31;51.33;100876.16;5056404;28;20058;-58
2023/07/29 06:01:12;;;;;;;5.47;4.55;;;;;;;27.30;51.43;100883.44;5061426;28;20403;-59
2023/07/29 06:03:39;;;;;;;6.60;4.57;;;;;;;27.31;51.27;100881.59;5064991;28;20056;-58
2023/07/29 06:06:07;;;;;;;5.63;4.45;;;;;;;27.30;51.64;100888.88;5053693;28;20053;-58
2023/07/29 06:08:35;;;;;;;5.72;3.78;;;;;;;27.30;51.65;100888.03;5055905;28;20048;-62
2023/07/29 06:11:02;;;;;;;5.15;4.05;;;;;;;27.30;51.52;100880.72;5060097;28;20052;-62
2023/07/29 06:13:29;;;;;;;5.55;4.10;;;;;;;27.31;51.35;100874.28;5071518;28;20060;-62
2023/07/29 06:15:57;;;;;;;4.68;3.58;;;;;;;27.32;51.23;100872.41;5060194;28;20045;-63
2023/07/29 06:18:25;;;;;;;4.50;3.95;;;;;;;27.33;51.25;100879.53;5056956;28;20048;-58
2023/07/29 06:20:52;;;;;;;4.65;3.65;;;;;;;27.34;51.30;100883.91;5057254;28;20045;-58
2023/07/29 06:23:20;;;;;;;5.07;3.13;;;;;;;27.35;51.56;100882.91;5055352;28;20060;-58
2023/07/29 06:25:47;;;;;;;4.47;3.40;;;;;;;27.34;51.51;100884.75;5054039;28;20056;-58
2023/07/29 06:28:15;;;;;;;5.35;4.07;;;;;;;27.36;51.41;100884.59;5056292;28;20400;-62
2023/07/29 06:30:42;;;;;;;6.40;4.15;;;;;;;27.36;51.28;100890.03;5055034;28;20064;-63
2023/07/29 06:33:09;;;;;;;4.13;3.58;;;;;;;27.37;51.64;100883.56;5054942;28;20049;-63
2023/07/29 06:35:37;;;;;;;4.10;3.50;;;;;;;27.37;51.25;100883.56;5055828;28;20053;-63
2023/07/29 06:38:04;;;;;;;6.75;3.63;;;;;;;27.38;51.18;100877.09;5056208;28;20049;-62
2023/07/29 06:40:31;;;;;;;3.83;3.42;;;;;;;27.39;51.34;100891.53;5055015;28;20052;-59
2023/07/29 06:42:59;;;;;;;6.13;4.38;;;;;;;27.39;51.53;100891.53;5055390;28;20397;-59
2023/07/29 06:45:26;;;;;;;5.47;3.00;;;;;;;27.38;51.45;100881.69;5055310;28;20045;-59
2023/07/29 06:47:54;;;;;;;5.32;3.65;;;;;;;27.36;51.25;100898.19;5056059;28;20037;-59
2023/07/29 06:50:21;;;;;;;5.35;3.22;;;;;;;27.34;51.18;100902.94;5054793;28;20401;-59
2023/07/29 06:52:49;;;;;;;4.50;3.40;;;;;;;27.33;51.02;100901.25;5055053;28;20044;-59
2023/07/29 06:55:16;;;;;;;6.13;3.00;;;;;;;27.31;51.15;100892.47;5054808;28;20103;-59
2023/07/29 06:57:43;;;;;;;3.90;2.78;;;;;;;27.30;51.26;100897.03;5056206;28;20040;-59
2023/07/29 07:00:11;;;;;;;4.22;3.20;;;;;;;27.32;51.23;100905.03;5054983;28;20045;-59
2023/07/29 07:02:38;;;;;;;5.38;3.17;;;;;;;27.31;51.46;100897.91;5053753;28;20049;-59
2023/07/29 07:05:06;;;;;;;4.32;3.10;;;;;;;27.32;51.56;100891.44;5054906;28;20052;-59
2023/07/29 07:07:33;;;;;;;3.70;2.90;;;;;;;27.31;51.73;100889.75;5055817;28;20052;-57
2023/07/29 07:10:01;;;;;;;3.45;2.28;;;;;;;27.31;51.77;100889.75;5055032;28;20049;-57
2023/07/29 07:12:28;;;;;;;3.70;2.75;;;;;;;27.31;52.23;100893.31;5055256;28;20057;-57
2023/07/29 07:14:55;;;;;;;4.22;2.97;;;;;;;27.30;52.38;100879.88;5054817;28;20045;-57
2023/07/29 07:17:23;;;;;;;3.88;2.72;;;;;;;27.30;52.41;100882.59;5055745;28;20408;-59
2023/07/29 07:19:50;;;;;;;4.72;2.95;;;;;;;27.30;52.41;100885.31;5055331;28;20053;-59
2023/07/29 07:22:18;;;;;;;3.92;2.88;;;;;;;27.29;52.14;100880.91;5054648;28;20044;-58
2023/07/29 07:24:45;;;;;;;5.10;2.88;;;;;;;27.29;52.39;100870.88;5053642;28;20076;-57
2023/07/29 07:27:12;;;;;;;5.53;2.70;;;;;;;27.30;52.20;100869.84;5056380;28;20059;-57
2023/07/29 07:29:40;;;;;;;4.38;3.40;;;;;;;27.30;52.38;100867.13;5054360;28;20382;-57
2023/07/29 07:32:07;;;;;;;4.32;3.38;;;;;;;27.30;52.71;100867.13;5054414;28;20508;-57
2023/07/29 07:34:35;;;;;;;6.35;3.42;;;;;;;27.32;52.76;100867.81;5054725;28;20064;-57
2023/07/29 07:37:04;;;;;;;4.78;3.00;;;;;;;27.32;52.63;100866.97;5071675;28;20048;-59
2023/07/29 07:39:31;;;;;;;4.85;2.55;;;;;;;27.33;52.88;100874.09;5054618;28;20048;-57
2023/07/29 07:41:59;;;;;;;4.18;2.80;;;;;;;27.33;52.70;100877.63;5054674;28;20045;-57
2023/07/29 07:44:26;;;;;;;4.85;3.00;;;;;;;27.33;52.81;100865.94;5055131;28;20053;-57
2023/07/29 07:46:54;;;;;;;4.50;2.53;;;;;;;27.33;52.86;100863.22;5055218;28;20056;-59
2023/07/29 07:49:22;;;;;;;5.03;2.35;;;;;;;27.32;52.36;100869.69;5054346;28;20056;-59
2023/07/29 07:51:49;;;;;;;4.90;2.78;;;;;;;27.32;52.53;100865.09;5054388;28;20376;-59
2023/07/29 07:54:16;;;;;;;2.97;2.20;;;;;;;27.33;52.23;100872.19;5054315;28;20076;-59
2023/07/29 07:56:44;;;;;;;4.03;2.60;;;;;;;27.33;52.26;100874.91;5055338;28;20048;-59
2023/07/29 07:59:11;;;;;;;4.55;2.80;;;;;;;27.33;52.14;100874.91;5058597;28;20037;-59
2023/07/29 08:01:41;;;;;;;4.75;2.90;;;;;;;27.35;52.11;100866.59;5063388;28;20041;-59
2023/07/29 08:04:08;;;;;;;5.88;2.28;;;;;;;27.38;52.01;100866.22;5054171;28;20056;-61
2023/07/29 08:06:36;;;;;;;5.30;2.72;;;;;;;27.39;52.18;100862.50;5060288;28;20041;-64
2023/07/29 08:09:04;;;;;;;4.63;2.53;;;;;;;27.40;52.46;100861.44;5066189;28;20032;-55
2023/07/29 08:11:32;;;;;;;4.28;2.78;;;;;;;27.43;52.38;100863.81;5061909;28;20511;-54
2023/07/29 08:13:59;;;;;;;3.47;2.20;;;;;;;27.43;51.97;100862.94;5053636;28;20052;-51
2023/07/29 08:16:26;;;;;;;4.28;2.65;;;;;;;27.44;51.38;100867.38;5057559;28;20036;-57
2023/07/29 08:18:56;;;;;;;4.60;2.42;;;;;;;27.44;51.44;100862.78;5056078;28;20056;-59
2023/07/29 08:21:23;;;;;;;2.97;2.08;;;;;;;27.45;51.39;100861.72;5064834;28;20632;-59
2023/07/29 08:23:50;;;;;;;3.83;2.22;;;;;;;27.47;51.72;100875.16;5058942;28;20045;-59
2023/07/29 08:26:18;;;;;;;4.43;2.63;;;;;;;27.48;51.38;100874.97;5068293;28;20048;-60
2023/07/29 08:28:45;;;;;;;3.22;2.22;;;;;;;27.48;51.47;100872.25;5065192;28;20033;-59
2023/07/29 08:31:12;;;;;;;5.15;2.70;;;;;;;27.49;51.45;100868.50;5068544;28;20051;-59
2023/07/29 08:33:40;;;;;;;5.22;2.60;;;;;;;27.48;50.99;100858.66;5067459;28;20401;-59
2023/07/29 08:36:07;;;;;;;4.30;2.75;;;;;;;27.48;50.91;100864.09;5064434;28;20381;-59
2023/07/29 08:38:34;;;;;;;4.18;2.80;;;;;;;27.49;51.34;100857.63;5071458;28;20047;-56
2023/07/29 08:41:31;;;;;;;3.95;2.70;;;;;;;27.49;50.80;100860.31;5069200;28;20404;-53
2023/07/29 08:44:06;;;;;;;4.28;2.60;;;;;;;27.50;51.20;100863.88;5067069;28;20052;-53
2023/07/29 08:46:37;;;;;;;3.47;2.58;;;;;;;27.51;51.57;100861.00;5066727;28;20053;-58
2023/07/29 08:49:05;;;;;;;3.70;2.55;;;;;;;27.53;51.58;100858.09;5067502;28;20041;-59
2023/07/29 08:51:34;;;;;;;4.90;2.55;;;;;;;27.54;51.66;100848.91;5072210;28;20052;-58
2023/07/29 08:54:02;;;;;;;3.95;2.42;;;;;;;27.54;51.37;100849.72;5066644;28;20048;-61
2023/07/29 08:56:30;;;;;;;3.80;2.55;;;;;;;27.55;51.09;100846.00;5066600;28;20048;-62
2023/07/29 08:59:00;;;;;;;4.68;2.05;;;;;;;27.57;51.22;100841.22;5072318;28;20045;-59
2023/07/29 09:01:28;;;;;;;4.40;2.05;;;;;;;27.59;51.26;100843.75;5065659;28;20044;-58
2023/07/29 09:03:55;;;;;;;3.70;2.33;;;;;;;27.60;51.29;100838.13;5071346;28;20045;-59
2023/07/29 09:06:25;;;;;;;3.67;2.58;;;;;;;27.63;51.56;100849.66;5066750;28;20677;-59
2023/07/29 09:08:56;;;;;;;4.35;2.47;;;;;;;27.65;51.30;100845.72;5067068;28;20048;-59
2023/07/29 09:11:24;;;;;;;3.13;2.20;;;;;;;27.67;51.36;100848.25;5071697;28;20044;-60
2023/07/29 09:13:52;;;;;;;3.67;2.63;;;;;;;27.69;51.34;100851.63;5063741;28;20045;-59
2023/07/29 09:16:21;;;;;;;4.15;2.42;;;;;;;27.71;51.44;100845.00;5067318;28;20045;-61
2023/07/29 09:18:52;;;;;;;3.42;2.40;;;;;;;27.74;51.20;100849.22;5056211;28;20040;-58
2023/07/29 09:21:26;;;;;;;3.50;2.25;;;;;;;27.78;51.35;100847.81;5055956;28;20084;-57
2023/07/29 09:23:54;;;;;;;4.20;2.88;;;;;;;27.79;51.15;100836.78;5055883;28;20045;-57
2023/07/29 09:26:26;;;;;;;3.30;2.25;;;;;;;27.80;51.27;100837.63;5055129;28;20041;-57
2023/07/29 09:28:57;;;;;;;3.30;2.25;;;;;;;27.80;51.50;100832.16;5055310;28;20485;-58
2023/07/29 09:31:26;;;;;;;3.20;2.30;;;;;;;27.79;51.46;100831.34;5055667;28;20048;-57
2023/07/29 09:34:02;;;;;;;5.65;2.83;;;;;;;27.79;51.09;100831.34;5063156;28;20791;-57
2023/07/29 09:36:31;;;;;;;3.75;2.33;;;;;;;27.78;51.30;100826.06;5062904;28;20045;-57
2023/07/29 09:38:59;;;;;;;3.65;2.60;;;;;;;27.78;51.05;100829.63;5057677;28;20041;-58
2023/07/29 09:41:30;;;;;;;4.28;2.33;;;;;;;27.78;51.53;100828.78;5054988;28;20417;-58
2023/07/29 09:44:02;;;;;;;3.45;2.70;;;;;;;27.79;51.43;100825.03;5063209;28;20392;-58
2023/07/29 09:46:37;;;;;;;3.25;2.22;;;;;;;27.79;51.71;100822.28;5060849;28;20053;-56
2023/07/29 09:49:07;;;;;;;3.88;2.50;;;;;;;27.79;51.65;100836.78;5055183;28;20041;-57
2023/07/29 09:51:39;;;;;;;3.42;2.33;;;;;;;27.80;52.00;100838.44;5062555;28;20053;-56
2023/07/29 09:54:07;;;;;;;5.13;2.97;;;;;;;27.80;51.76;100837.63;5065096;28;20052;-57
2023/07/29 09:56:41;;;;;;;3.92;2.17;;;;;;;27.80;51.99;100829.44;5065551;28;20044;-58
2023/07/29 09:59:09;;;;;;;3.78;2.40;;;;;;;27.80;51.91;100829.44;5062682;28;20041;-58
2023/07/29 10:01:37;;;;;;;3.83;2.33;;;;;;;27.81;51.83;100831.13;5061397;28;20052;-58
2023/07/29 10:04:05;;;;;;;3.15;2.20;;;;;;;27.81;52.14;100828.41;5058358;28;20051;-56
2023/07/29 10:06:36;;;;;;;4.25;2.22;;;;;;;27.82;51.83;100827.38;5065339;28;20048;-57
2023/07/29 10:09:05;;;;;;;4.05;2.63;;;;;;;27.81;51.63;100818.38;5061572;28;20420;-57
2023/07/29 10:11:33;;;;;;;4.60;2.63;;;;;;;27.82;51.42;100830.09;5062836;28;20048;-58
2023/07/29 10:14:01;;;;;;;4.32;2.67;;;;;;;27.81;51.53;100826.53;5065508;28;20504;-57
2023/07/29 10:16:41;;;;;;;2.95;2.33;;;;;;;27.82;51.61;100822.78;5062218;28;20048;-58
2023/07/29 10:19:09;;;;;;;4.10;2.28;;;;;;;27.82;51.52;100821.94;5055428;28;20037;-56
2023/07/29 10:21:39;;;;;;;4.82;2.70;;;;;;;27.82;51.52;100819.22;5057865;28;20060;-55
2023/07/29 10:24:15;;;;;;;4.55;2.72;;;;;;;27.83;51.77;100815.44;5071505;28;20048;-55
2023/07/29 10:26:47;;;;;;;4.25;2.63;;;;;;;27.83;51.46;100821.75;5069396;28;20071;-57
2023/07/29 10:29:18;;;;;;;3.22;2.25;;;;;;;27.83;51.96;100826.31;5068612;28;20040;-57
2023/07/29 10:31:46;;;;;;;5.07;2.40;;;;;;;27.85;51.61;100816.97;5066765;28;20053;-57
2023/07/29 10:34:14;;;;;;;4.15;2.30;;;;;;;27.85;51.71;100825.13;5070937;28;20293;-55
2023/07/29 10:36:42;;;;;;;4.63;2.60;;;;;;;27.86;52.07;100820.53;5065569;28;20041;-57
2023/07/29 10:39:10;;;;;;;4.72;2.67;;;;;;;27.87;52.97;100815.91;5066603;28;20048;-58
2023/07/29 10:41:58;;;;;;;5.38;2.90;;;;;;;27.86;55.00;100817.78;5070333;28;20060;-58
2023/07/29 10:44:43;;;;;;;5.15;3.13;;;;;;;27.85;56.43;100818.84;5069280;28;20411;-57
2023/07/29 10:47:19;;;;;;;5.03;2.95;;;;;;;27.83;57.19;100816.31;5070536;28;20381;-57
2023/07/29 10:49:54;;;;;;;3.45;2.63;;;;;;;27.80;57.29;100813.13;5069316;28;20037;-58
2023/07/29 10:52:39;;;;;;;4.63;3.03;;;;;;;27.78;57.35;100815.19;5055857;28;20048;-58
2023/07/29 10:55:32;;;;;;;3.42;2.53;;;;;;;27.76;58.13;100815.38;5069606;28;20044;-57
2023/07/29 10:58:13;;;;;;;3.08;2.50;;;;;;;27.75;58.57;100818.25;5063695;28;20067;-56
2023/07/29 11:00:43;;;;;;;3.58;2.63;;;;;;;27.72;58.91;100805.88;5059405;28;20040;-58
2023/07/29 11:03:14;;;;;;;3.25;2.70;;;;;;;27.71;59.31;100808.75;5069662;28;20582;-60
2023/07/29 11:05:49;;;;;;;4.93;2.53;;;;;;;27.71;58.74;100800.59;5063979;28;20053;-56
2023/07/29 11:08:34;;;;;;;4.20;2.70;;;;;;;27.70;58.93;100796.19;5064439;28;20095;-56
2023/07/29 11:11:04;;;;;;;4.55;2.58;;;;;;;27.69;59.13;100794.53;5058258;28;20053;-58
2023/07/29 11:13:34;;;;;;;3.58;2.55;;;;;;;27.68;58.76;100798.28;5068577;28;20044;-56
2023/07/29 11:16:03;;;;;;;3.63;2.75;;;;;;;27.67;59.16;100786.56;5065965;28;20052;-56
2023/07/29 11:18:33;;;;;;;4.70;2.83;;;;;;;27.67;59.75;100789.28;5065698;28;20068;-57
2023/07/29 11:21:03;;;;;;;4.40;2.80;;;;;;;27.67;59.86;100791.13;5052326;28;20044;-59
2023/07/29 11:23:32;;;;;;;3.78;2.50;;;;;;;27.68;59.18;100784.69;5063229;28;20048;-58
2023/07/29 11:26:00;;;;;;;4.32;2.85;;;;;;;27.69;58.46;100781.75;5066574;28;20048;-59
2023/07/29 11:28:28;;;;;;;4.57;2.65;;;;;;;27.70;57.35;100779.88;5070402;28;20055;-56
2023/07/29 11:30:56;;;;;;;4.60;2.55;;;;;;;27.72;57.12;100775.94;5065121;28;20511;-57
2023/07/29 11:33:27;;;;;;;3.47;2.78;;;;;;;27.73;56.56;100774.06;5069785;28;20826;-51